Time;durP1;ratioP1;P1;durP2;ratioP2;P2;SDS_P1;SDS_P2;PMS_P1;PMS_P2;Temp;Humidity;BMP_temperature;BMP_pressure;BME280_temperature;BME280_humidity;BME280_pressure;Samples;Min_cycle;Max_cycle;Signal;HPM_P1;HPM_P2
2022/12/10 00:01:19;;;;;;;;;;;4.90;58.60;;;;;;5028638;28;19917;-89
2022/12/10 00:03:45;;;;;;;;;;;5.00;58.70;;;;;;5028858;28;19928;-88
2022/12/10 00:06:11;;;;;;;;;;;5.00;58.70;;;;;;5030525;28;20359;-88
2022/12/10 00:08:37;;;;;;;;;;;5.10;58.60;;;;;;5029423;28;19956;-88
2022/12/10 00:11:03;;;;;;;;;;;5.10;58.60;;;;;;5028151;28;20658;-90
2022/12/10 00:13:30;;;;;;;;;;;5.10;58.50;;;;;;5021131;28;20431;-89
2022/12/10 00:15:55;;;;;;;;;;;5.20;58.50;;;;;;5028861;28;20372;-87
2022/12/10 00:18:21;;;;;;;;;;;5.20;58.60;;;;;;5027368;28;20376;-88
2022/12/10 00:20:46;;;;;;;;;;;5.30;58.60;;;;;;5029411;28;19917;-89
2022/12/10 00:23:12;;;;;;;;;;;5.30;58.60;;;;;;5027959;28;19920;-88
2022/12/10 00:25:37;;;;;;;;;;;5.30;58.50;;;;;;5027946;28;19913;-89
2022/12/10 00:28:03;;;;;;;;;;;5.40;58.60;;;;;;5026737;28;20129;-90
2022/12/10 00:30:28;;;;;;;;;;;5.40;58.70;;;;;;5026485;28;19917;-88
2022/12/10 00:32:54;;;;;;;;;;;5.40;58.70;;;;;;5019055;28;19931;-87
2022/12/10 00:35:19;;;;;;;;;;;5.40;58.60;;;;;;5023953;28;20395;-89
2022/12/10 00:37:44;;;;;;;;;;;5.40;58.60;;;;;;5019404;28;19927;-90
2022/12/10 00:40:10;;;;;;;;;;;5.50;58.60;;;;;;5024709;28;19917;-90
2022/12/10 00:42:36;;;;;;;;;;;5.50;58.50;;;;;;5023936;28;19924;-89
2022/12/10 00:45:02;;;;;;;;;;;5.50;58.60;;;;;;5021842;28;19920;-88
2022/12/10 00:47:27;;;;;;;;;;;5.50;58.60;;;;;;5024761;28;20302;-88
2022/12/10 00:49:53;;;;;;;;;;;5.50;58.60;;;;;;5021130;28;20175;-89
2022/12/10 00:52:18;;;;;;;;;;;5.60;58.60;;;;;;5022756;28;19917;-87
2022/12/10 00:54:44;;;;;;;;;;;5.60;58.60;;;;;;5034545;28;19943;-88
2022/12/10 00:57:09;;;;;;;;;;;5.60;58.50;;;;;;5028579;28;20372;-89
2022/12/10 00:59:35;;;;;;;;;;;5.60;58.50;;;;;;5030773;28;19971;-88
2022/12/10 01:02:00;;;;;;;;;;;5.60;58.60;;;;;;5031934;28;19917;-89
2022/12/10 01:04:26;;;;;;;;;;;5.70;58.70;;;;;;5030809;28;19925;-88
2022/12/10 01:06:52;;;;;;;;;;;5.70;58.60;;;;;;5030525;28;19936;-89
2022/12/10 01:09:19;;;;;;;;;;;5.60;58.50;;;;;;5032413;28;19916;-88
2022/12/10 01:11:46;;;;;;;;;;;5.70;58.50;;;;;;5031120;28;19964;-88
2022/12/10 01:14:13;;;;;;;;;;;5.70;58.50;;;;;;5025732;28;19918;-88
2022/12/10 01:16:39;;;;;;;;;;;5.70;58.50;;;;;;5029311;28;19921;-87
2022/12/10 01:19:05;;;;;;;;;;;5.70;58.40;;;;;;5031437;28;19936;-88
2022/12/10 01:21:30;;;;;;;;;;;5.80;58.50;;;;;;5029879;28;19917;-89
2022/12/10 01:23:57;;;;;;;;;;;5.80;58.50;;;;;;5031423;28;19925;-89
2022/12/10 01:26:24;;;;;;;;;;;5.90;58.50;;;;;;5030296;28;19917;-89
2022/12/10 01:28:50;;;;;;;;;;;5.80;58.40;;;;;;5028797;28;19928;-88
2022/12/10 01:31:29;;;;;;;;;;;5.90;58.40;;;;;;5026209;28;19909;-89
2022/12/10 01:33:55;;;;;;;;;;;5.90;58.50;;;;;;5029405;28;19928;-87
2022/12/10 01:36:22;;;;;;;;;;;5.90;58.40;;;;;;5030816;28;19951;-89
2022/12/10 01:38:48;;;;;;;;;;;5.90;58.30;;;;;;5031092;28;19918;-89
2022/12/10 01:41:15;;;;;;;;;;;5.90;58.20;;;;;;5028930;28;20271;-88
2022/12/10 01:44:10;;;;;;;;;;;5.90;58.10;;;;;;5029501;28;19932;-88
2022/12/10 01:46:37;;;;;;;;;;;5.80;58.10;;;;;;4959484;28;19965;-87
2022/12/10 01:49:04;;;;;;;;;;;5.80;58.20;;;;;;5027112;28;19920;-88
2022/12/10 01:51:31;;;;;;;;;;;5.80;58.40;;;;;;5028201;28;20548;-88
2022/12/10 01:54:00;;;;;;;;;;;5.90;58.40;;;;;;5009272;28;20503;-89
2022/12/10 01:56:25;;;;;;;;;;;5.90;58.40;;;;;;5011941;28;19925;-88
2022/12/10 01:58:52;;;;;;;;;;;5.90;58.40;;;;;;5013908;28;19920;-89
2022/12/10 02:01:25;;;;;;;;;;;5.90;58.40;;;;;;5011742;28;20355;-88
2022/12/10 02:03:54;;;;;;;;;;;5.90;58.30;;;;;;5011866;28;19918;-89
2022/12/10 02:06:38;;;;;;;;;;;5.90;58.30;;;;;;5032072;28;19913;-89
2022/12/10 02:09:11;;;;;;;;;;;5.90;58.30;;;;;;5029979;28;19940;-87
2022/12/10 02:11:42;;;;;;;;;;;5.90;58.50;;;;;;5029092;28;19913;-89
2022/12/10 02:14:26;;;;;;;;;;;5.90;58.50;;;;;;5027675;28;20433;-88
2022/12/10 02:16:56;;;;;;;;;;;5.90;58.50;;;;;;5010894;28;19983;-88
2022/12/10 02:19:24;;;;;;;;;;;5.90;58.60;;;;;;5025251;28;20283;-88
2022/12/10 02:21:51;;;;;;;;;;;6.00;58.40;;;;;;5020877;28;19949;-88
2022/12/10 02:24:20;;;;;;;;;;;6.00;58.50;;;;;;5028627;28;20392;-88
2022/12/10 02:26:46;;;;;;;;;;;6.00;58.40;;;;;;5029934;28;19974;-89
2022/12/10 02:29:23;;;;;;;;;;;6.00;58.40;;;;;;5029986;28;20011;-87
2022/12/10 02:32:09;;;;;;;;;;;6.00;58.40;;;;;;5013279;28;19913;-89
2022/12/10 02:34:37;;;;;;;;;;;6.00;58.40;;;;;;5014683;28;20004;-88
2022/12/10 02:37:05;;;;;;;;;;;6.00;58.40;;;;;;5026238;28;19917;-89
2022/12/10 02:39:34;;;;;;;;;;;6.00;58.50;;;;;;5023577;28;19921;-88
2022/12/10 02:42:03;;;;;;;;;;;6.10;58.50;;;;;;5036216;28;19917;-88
2022/12/10 02:44:29;;;;;;;;;;;6.10;58.50;;;;;;5023022;28;19921;-89
2022/12/10 02:46:56;;;;;;;;;;;6.10;58.40;;;;;;5031771;28;19928;-87
2022/12/10 02:49:23;;;;;;;;;;;6.10;58.30;;;;;;5033275;28;20364;-88
2022/12/10 02:51:49;;;;;;;;;;;6.10;58.40;;;;;;5014926;28;19917;-88
2022/12/10 02:54:32;;;;;;;;;;;6.10;58.50;;;;;;5023500;28;20532;-88
2022/12/10 02:56:59;;;;;;;;;;;6.20;58.60;;;;;;5031651;28;19921;-87
2022/12/10 02:59:31;;;;;;;;;;;6.20;58.60;;;;;;5036136;28;19925;-87
2022/12/10 03:02:00;;;;;;;;;;;6.20;58.50;;;;;;5030882;28;20414;-88
2022/12/10 03:04:33;;;;;;;;;;;6.20;58.60;;;;;;5015648;28;19917;-87
2022/12/10 03:07:02;;;;;;;;;;;6.20;58.60;;;;;;5012505;28;19914;-89
2022/12/10 03:09:48;;;;;;;;;;;6.20;58.60;;;;;;5014560;28;19913;-88
2022/12/10 03:12:22;;;;;;;;;;;6.20;58.60;;;;;;5017067;28;20038;-90
2022/12/10 03:14:47;;;;;;;;;;;6.30;58.60;;;;;;5032052;28;19979;-90
2022/12/10 03:17:14;;;;;;;;;;;6.30;58.60;;;;;;5033239;28;19918;-89
2022/12/10 03:19:42;;;;;;;;;;;6.30;58.70;;;;;;5032816;28;19936;-89
2022/12/10 03:22:09;;;;;;;;;;;6.40;58.60;;;;;;5032437;28;19917;-89
2022/12/10 03:24:35;;;;;;;;;;;6.40;58.60;;;;;;5029518;28;19928;-88
2022/12/10 03:27:01;;;;;;;;;;;6.40;58.60;;;;;;5014092;28;20375;-89
2022/12/10 03:29:28;;;;;;;;;;;6.40;58.60;;;;;;5027678;28;19924;-90
2022/12/10 03:31:54;;;;;;;;;;;6.40;58.60;;;;;;5031836;28;19917;-89
2022/12/10 03:34:20;;;;;;;;;;;6.40;58.50;;;;;;5032572;28;19963;-89
2022/12/10 03:36:46;;;;;;;;;;;6.50;58.50;;;;;;5032481;28;19960;-87
2022/12/10 03:39:12;;;;;;;;;;;6.50;58.50;;;;;;5030827;28;19971;-88
2022/12/10 03:41:38;;;;;;;;;;;6.50;58.50;;;;;;5032885;28;19917;-88
2022/12/10 03:44:03;;;;;;;;;;;6.50;58.50;;;;;;5032008;28;19928;-89
2022/12/10 03:46:30;;;;;;;;;;;6.50;58.40;;;;;;5033300;28;19992;-88
2022/12/10 03:48:57;;;;;;;;;;;6.50;58.50;;;;;;5030660;28;19917;-89
2022/12/10 03:51:22;;;;;;;;;;;6.50;58.50;;;;;;5032641;28;19987;-88
2022/12/10 03:53:51;;;;;;;;;;;6.50;58.40;;;;;;5031258;28;20415;-88
2022/12/10 03:56:17;;;;;;;;;;;6.50;58.40;;;;;;5031624;28;19996;-90
2022/12/10 03:58:42;;;;;;;;;;;6.50;58.40;;;;;;5032502;28;20318;-89
2022/12/10 04:01:08;;;;;;;;;;;6.50;58.30;;;;;;5030484;28;19921;-89
2022/12/10 04:03:35;;;;;;;;;;;6.50;58.30;;;;;;5030755;28;19929;-89
2022/12/10 04:06:01;;;;;;;;;;;6.40;58.20;;;;;;5032356;28;19924;-88
2022/12/10 04:08:26;;;;;;;;;;;6.40;58.40;;;;;;5033057;28;19917;-89
2022/12/10 04:10:52;;;;;;;;;;;6.40;58.50;;;;;;5030783;28;19936;-89
2022/12/10 04:18:45;;;;;;;;;;;6.50;58.70;;;;;;5028303;28;19959;-88
2022/12/10 04:26:51;;;;;;;;;;;6.50;58.80;;;;;;5025471;28;20039;-89
2022/12/10 04:29:17;;;;;;;;;;;6.50;58.80;;;;;;5030756;28;20340;-88
2022/12/10 04:31:42;;;;;;;;;;;6.50;58.70;;;;;;5031947;28;19924;-87
2022/12/10 04:34:08;;;;;;;;;;;6.50;58.60;;;;;;5031122;28;19925;-88
2022/12/10 04:36:33;;;;;;;;;;;6.50;58.60;;;;;;5030758;28;19921;-90
2022/12/10 04:38:59;;;;;;;;;;;6.50;58.70;;;;;;5031931;28;20375;-88
2022/12/10 04:41:24;;;;;;;;;;;6.50;58.60;;;;;;5031495;28;19925;-88
2022/12/10 04:43:51;;;;;;;;;;;6.50;58.60;;;;;;5025276;28;20281;-89
2022/12/10 04:46:17;;;;;;;;;;;6.60;58.60;;;;;;5012070;28;19914;-88
2022/12/10 04:48:42;;;;;;;;;;;6.50;58.60;;;;;;5025935;28;19919;-87
2022/12/10 04:51:08;;;;;;;;;;;6.60;58.60;;;;;;5029753;28;19967;-88
2022/12/10 04:53:33;;;;;;;;;;;6.60;58.60;;;;;;5026356;28;20053;-88
2022/12/10 04:56:00;;;;;;;;;;;6.50;58.60;;;;;;5030624;28;19925;-88
2022/12/10 04:58:30;;;;;;;;;;;6.50;58.70;;;;;;5028650;28;19924;-88
2022/12/10 05:01:03;;;;;;;;;;;6.50;58.60;;;;;;5016600;28;19914;-88
2022/12/10 05:03:28;;;;;;;;;;;6.50;58.60;;;;;;5020275;28;19924;-88
2022/12/10 05:05:54;;;;;;;;;;;6.50;58.60;;;;;;5034086;28;19940;-89
2022/12/10 05:08:20;;;;;;;;;;;6.60;58.70;;;;;;5030480;28;19914;-89
2022/12/10 05:10:45;;;;;;;;;;;6.60;58.60;;;;;;5031343;28;19952;-89
2022/12/10 05:13:10;;;;;;;;;;;6.70;58.60;;;;;;5030959;28;19921;-89
2022/12/10 05:15:39;;;;;;;;;;;6.60;58.60;;;;;;5030963;28;19921;-90
2022/12/10 05:18:05;;;;;;;;;;;6.70;58.50;;;;;;5031970;28;20842;-87
2022/12/10 05:20:30;;;;;;;;;;;6.70;58.40;;;;;;5029788;28;20567;-88
2022/12/10 05:25:52;;;;;;;;;;;6.70;58.50;;;;;;5043205;28;20378;-87
2022/12/10 05:28:22;;;;;;;;;;;6.70;58.60;;;;;;5029794;28;20285;-88
2022/12/10 05:30:48;;;;;;;;;;;6.70;58.50;;;;;;5031535;28;19920;-88
2022/12/10 05:33:13;;;;;;;;;;;6.80;58.40;;;;;;5029279;28;20352;-87
2022/12/10 05:35:39;;;;;;;;;;;6.70;58.30;;;;;;5024354;28;20420;-87
2022/12/10 05:38:06;;;;;;;;;;;6.70;58.30;;;;;;5026018;28;20262;-88
2022/12/10 05:40:35;;;;;;;;;;;6.70;58.20;;;;;;5033097;28;19996;-88
2022/12/10 05:43:01;;;;;;;;;;;6.70;58.20;;;;;;5031021;28;19917;-88
2022/12/10 05:45:26;;;;;;;;;;;6.70;58.30;;;;;;5030219;28;20000;-89
2022/12/10 05:47:52;;;;;;;;;;;6.70;58.30;;;;;;5028091;28;19967;-88
2022/12/10 05:50:17;;;;;;;;;;;6.70;58.30;;;;;;5019076;28;20339;-89
2022/12/10 05:52:43;;;;;;;;;;;6.70;58.40;;;;;;5027012;28;19918;-87
2022/12/10 05:55:08;;;;;;;;;;;6.70;58.40;;;;;;5010282;28;19925;-88
2022/12/10 05:57:35;;;;;;;;;;;6.70;58.40;;;;;;5019962;28;19957;-89
2022/12/10 06:00:00;;;;;;;;;;;6.80;58.50;;;;;;5030491;28;20387;-89
2022/12/10 06:02:26;;;;;;;;;;;6.80;58.60;;;;;;5031495;28;19918;-88
2022/12/10 06:04:51;;;;;;;;;;;6.80;58.60;;;;;;5031216;28;19909;-87
2022/12/10 06:07:17;;;;;;;;;;;6.80;58.70;;;;;;5013350;28;19921;-89
2022/12/10 06:09:42;;;;;;;;;;;6.80;58.70;;;;;;5019173;28;19941;-89
2022/12/10 06:12:08;;;;;;;;;;;6.80;58.70;;;;;;5029492;28;19921;-89
2022/12/10 06:14:33;;;;;;;;;;;6.80;58.70;;;;;;5029430;28;19919;-89
2022/12/10 06:16:59;;;;;;;;;;;6.80;58.60;;;;;;5028763;28;19987;-88
2022/12/10 06:19:24;;;;;;;;;;;6.90;58.50;;;;;;5031834;28;19917;-88
2022/12/10 06:21:50;;;;;;;;;;;6.90;58.50;;;;;;5033025;28;20300;-88
2022/12/10 06:24:15;;;;;;;;;;;6.80;58.60;;;;;;5034811;28;19914;-89
2022/12/10 06:26:40;;;;;;;;;;;6.90;58.60;;;;;;5038165;28;19913;-89
2022/12/10 06:29:06;;;;;;;;;;;6.90;58.60;;;;;;5031984;28;19917;-89
2022/12/10 06:31:31;;;;;;;;;;;6.90;58.60;;;;;;5032526;28;19920;-87
2022/12/10 06:33:57;;;;;;;;;;;6.90;58.60;;;;;;5020461;28;20031;-87
2022/12/10 06:36:22;;;;;;;;;;;6.90;58.60;;;;;;5034063;28;19928;-87
2022/12/10 06:38:48;;;;;;;;;;;6.90;58.50;;;;;;5024070;28;19914;-90
2022/12/10 06:41:17;;;;;;;;;;;7.00;58.60;;;;;;5031964;28;19914;-88
2022/12/10 06:43:43;;;;;;;;;;;7.00;58.60;;;;;;5014266;28;19992;-87
2022/12/10 06:46:10;;;;;;;;;;;6.90;58.60;;;;;;5025946;28;19924;-89
2022/12/10 06:48:35;;;;;;;;;;;6.90;58.40;;;;;;5032064;28;19928;-89
2022/12/10 06:51:02;;;;;;;;;;;6.90;58.40;;;;;;5033371;28;20136;-89
2022/12/10 06:53:27;;;;;;;;;;;6.90;58.40;;;;;;5032851;28;19936;-88
2022/12/10 06:55:53;;;;;;;;;;;6.90;58.40;;;;;;5033038;28;20015;-88
2022/12/10 06:58:18;;;;;;;;;;;6.90;58.60;;;;;;5031428;28;19924;-88
2022/12/10 07:00:43;;;;;;;;;;;6.90;58.60;;;;;;5018664;28;19921;-88
2022/12/10 07:03:09;;;;;;;;;;;6.90;58.50;;;;;;5032900;28;19917;-88
2022/12/10 07:05:34;;;;;;;;;;;6.90;58.50;;;;;;5033636;28;19924;-88
2022/12/10 07:08:00;;;;;;;;;;;6.90;58.60;;;;;;5033174;28;20326;-87
2022/12/10 07:10:25;;;;;;;;;;;6.90;58.60;;;;;;5029398;28;19951;-87
2022/12/10 07:12:51;;;;;;;;;;;6.90;58.70;;;;;;5033689;28;19921;-88
2022/12/10 07:15:16;;;;;;;;;;;6.90;58.70;;;;;;5032298;28;19921;-89
2022/12/10 07:17:42;;;;;;;;;;;6.90;58.60;;;;;;5031631;28;19924;-88
2022/12/10 07:20:07;;;;;;;;;;;6.80;58.70;;;;;;5033277;28;19913;-89
2022/12/10 07:22:33;;;;;;;;;;;6.80;58.80;;;;;;5031232;28;19924;-87
2022/12/10 07:24:58;;;;;;;;;;;6.80;58.70;;;;;;5024279;28;19971;-87
2022/12/10 07:27:24;;;;;;;;;;;6.80;58.80;;;;;;5027913;28;19924;-88
2022/12/10 07:29:49;;;;;;;;;;;6.90;58.70;;;;;;5032499;28;19909;-87
2022/12/10 07:32:15;;;;;;;;;;;6.90;58.70;;;;;;5032027;28;19920;-88
2022/12/10 07:34:40;;;;;;;;;;;6.90;58.60;;;;;;5033514;28;20408;-88
2022/12/10 07:37:06;;;;;;;;;;;6.90;58.60;;;;;;5031517;28;19926;-89
2022/12/10 07:39:32;;;;;;;;;;;6.90;58.60;;;;;;5033222;28;19916;-89
2022/12/10 07:41:57;;;;;;;;;;;6.90;58.70;;;;;;5032866;28;19913;-86
2022/12/10 07:44:24;;;;;;;;;;;6.90;58.80;;;;;;5033654;28;20794;-88
2022/12/10 07:46:50;;;;;;;;;;;7.00;58.60;;;;;;5032158;28;19941;-89
2022/12/10 07:49:16;;;;;;;;;;;7.00;58.60;;;;;;5030035;28;19917;-89
2022/12/10 07:51:45;;;;;;;;;;;7.00;58.60;;;;;;5030012;28;19920;-88
2022/12/10 07:54:11;;;;;;;;;;;7.00;58.70;;;;;;5032936;28;19963;-88
2022/12/10 07:56:37;;;;;;;;;;;7.00;58.80;;;;;;5030839;28;19921;-90
2022/12/10 07:59:02;;;;;;;;;;;7.10;58.80;;;;;;5027878;28;19932;-88
2022/12/10 08:01:28;;;;;;;;;;;7.10;58.80;;;;;;5031553;28;19921;-88
2022/12/10 08:03:56;;;;;;;;;;;7.10;58.80;;;;;;5026956;28;19920;-88
2022/12/10 08:06:22;;;;;;;;;;;7.10;58.90;;;;;;5020972;28;19913;-88
2022/12/10 08:08:48;;;;;;;;;;;7.10;58.90;;;;;;5037028;28;19914;-88
2022/12/10 08:11:13;;;;;;;;;;;7.10;58.80;;;;;;5031481;28;19913;-88
2022/12/10 08:13:39;;;;;;;;;;;7.10;58.90;;;;;;5026619;28;20024;-88
2022/12/10 08:16:06;;;;;;;;;;;7.10;58.90;;;;;;5012282;28;20008;-88
2022/12/10 08:18:32;;;;;;;;;;;7.10;58.80;;;;;;5022264;28;19941;-89
2022/12/10 08:20:57;;;;;;;;;;;7.20;58.80;;;;;;5025758;28;19945;-89
2022/12/10 08:23:23;;;;;;;;;;;7.20;58.90;;;;;;5012210;28;19914;-89
2022/12/10 08:25:48;;;;;;;;;;;7.20;58.90;;;;;;5015813;28;19949;-89
2022/12/10 08:28:14;;;;;;;;;;;7.20;59.00;;;;;;5012368;28;19917;-88
2022/12/10 08:30:39;;;;;;;;;;;7.20;59.00;;;;;;5016581;28;19917;-88
2022/12/10 08:33:05;;;;;;;;;;;7.20;59.00;;;;;;5021758;28;19969;-89
2022/12/10 08:35:30;;;;;;;;;;;7.30;59.10;;;;;;5017032;28;19921;-88
2022/12/10 08:37:56;;;;;;;;;;;7.30;59.00;;;;;;5031300;28;19913;-89
2022/12/10 08:40:21;;;;;;;;;;;7.30;59.10;;;;;;5031405;28;20011;-87
2022/12/10 08:42:47;;;;;;;;;;;7.40;59.00;;;;;;5030407;28;19914;-88
2022/12/10 08:45:13;;;;;;;;;;;7.40;59.00;;;;;;5027838;28;20404;-88
2022/12/10 08:47:38;;;;;;;;;;;7.40;59.00;;;;;;5026396;28;19924;-88
2022/12/10 08:50:04;;;;;;;;;;;7.40;59.10;;;;;;5012613;28;19967;-90
2022/12/10 08:52:30;;;;;;;;;;;7.50;59.10;;;;;;5027743;28;19917;-88
2022/12/10 08:54:55;;;;;;;;;;;7.50;59.10;;;;;;5022823;28;19979;-89
2022/12/10 08:57:21;;;;;;;;;;;7.60;59.00;;;;;;5015804;28;19929;-88
2022/12/10 08:59:46;;;;;;;;;;;7.60;59.00;;;;;;5013526;28;20391;-88
2022/12/10 09:02:12;;;;;;;;;;;7.60;59.00;;;;;;5030860;28;20462;-88
2022/12/10 09:04:38;;;;;;;;;;;7.70;59.00;;;;;;5031515;28;19917;-88
2022/12/10 09:07:04;;;;;;;;;;;7.70;59.00;;;;;;5022916;28;19917;-89
2022/12/10 09:09:31;;;;;;;;;;;7.80;58.80;;;;;;5024471;28;19917;-89
2022/12/10 09:11:56;;;;;;;;;;;7.80;58.70;;;;;;5028812;28;19924;-89
2022/12/10 09:14:23;;;;;;;;;;;7.80;58.50;;;;;;5030007;28;19924;-88
2022/12/10 09:16:48;;;;;;;;;;;7.80;58.40;;;;;;5011282;28;19921;-89
2022/12/10 09:19:14;;;;;;;;;;;7.80;58.50;;;;;;5016276;28;20394;-88
2022/12/10 09:21:39;;;;;;;;;;;7.80;58.60;;;;;;5029576;28;19913;-87
2022/12/10 09:24:05;;;;;;;;;;;7.80;58.80;;;;;;5029492;28;19920;-87
2022/12/10 09:26:31;;;;;;;;;;;7.90;58.80;;;;;;5030567;28;19913;-87
2022/12/10 09:28:57;;;;;;;;;;;8.00;58.80;;;;;;5028844;28;19918;-89
2022/12/10 09:31:23;;;;;;;;;;;8.00;58.70;;;;;;5032464;28;19913;-89
2022/12/10 09:33:49;;;;;;;;;;;8.10;58.60;;;;;;5041513;28;20360;-87
2022/12/10 09:36:15;;;;;;;;;;;8.10;58.60;;;;;;5049185;28;20079;-89
2022/12/10 09:38:42;;;;;;;;;;;8.20;58.60;;;;;;5049187;28;19920;-88
2022/12/10 09:41:07;;;;;;;;;;;8.20;58.60;;;;;;5051654;28;19912;-88
2022/12/10 09:43:39;;;;;;;;;;;8.20;58.70;;;;;;5042873;28;20055;-89
2022/12/10 09:46:10;;;;;;;;;;;8.20;58.50;;;;;;5030272;28;20376;-88
2022/12/10 09:48:35;;;;;;;;;;;8.30;58.50;;;;;;5028993;28;20410;-88
2022/12/10 09:51:01;;;;;;;;;;;8.30;58.60;;;;;;5028644;28;19913;-89
2022/12/10 09:53:28;;;;;;;;;;;8.30;58.60;;;;;;5028620;28;20003;-89
2022/12/10 09:55:53;;;;;;;;;;;8.30;58.50;;;;;;5027766;28;20024;-88
2022/12/10 09:58:23;;;;;;;;;;;8.30;58.50;;;;;;5030475;28;20053;-88
2022/12/10 10:00:55;;;;;;;;;;;8.40;58.60;;;;;;5029576;28;20375;-87
2022/12/10 10:03:21;;;;;;;;;;;8.40;58.60;;;;;;5029059;28;19928;-88
2022/12/10 10:05:51;;;;;;;;;;;8.40;58.60;;;;;;5029402;28;19913;-88
2022/12/10 10:08:16;;;;;;;;;;;8.40;58.70;;;;;;5028265;28;19917;-89
2022/12/10 10:10:42;;;;;;;;;;;8.50;58.80;;;;;;5028393;28;19919;-88
2022/12/10 10:13:07;;;;;;;;;;;8.50;58.70;;;;;;5025775;28;19925;-88
2022/12/10 10:15:35;;;;;;;;;;;8.50;58.70;;;;;;5029225;28;19942;-88
2022/12/10 10:18:20;;;;;;;;;;;8.60;58.70;;;;;;5031482;28;19917;-88
2022/12/10 10:20:46;;;;;;;;;;;8.60;58.80;;;;;;5018424;28;19913;-88
2022/12/10 10:23:13;;;;;;;;;;;8.50;59.00;;;;;;5028790;28;19975;-89
2022/12/10 10:25:38;;;;;;;;;;;8.50;59.20;;;;;;5029894;28;20387;-89
2022/12/10 10:28:04;;;;;;;;;;;8.60;59.40;;;;;;5027119;28;19925;-89
2022/12/10 10:30:29;;;;;;;;;;;8.60;59.40;;;;;;5028760;28;20376;-88
2022/12/10 10:32:56;;;;;;;;;;;8.60;59.40;;;;;;5029420;28;20334;-87
2022/12/10 10:35:27;;;;;;;;;;;8.70;59.50;;;;;;5028606;28;19929;-89
2022/12/10 10:37:56;;;;;;;;;;;8.70;59.50;;;;;;5026942;28;19918;-87
2022/12/10 10:40:24;;;;;;;;;;;8.80;59.60;;;;;;5018826;28;19920;-89
2022/12/10 10:42:52;;;;;;;;;;;8.80;59.70;;;;;;5026561;28;19971;-88
2022/12/10 10:45:29;;;;;;;;;;;8.80;59.80;;;;;;5028152;28;20023;-87
2022/12/10 10:48:06;;;;;;;;;;;8.80;59.80;;;;;;5019015;28;19967;-89
2022/12/10 10:50:35;;;;;;;;;;;8.90;59.70;;;;;;5022171;28;19917;-89
2022/12/10 10:53:01;;;;;;;;;;;8.90;59.80;;;;;;5026604;28;19925;-88
2022/12/10 10:55:32;;;;;;;;;;;9.00;59.80;;;;;;5027256;28;19925;-87
2022/12/10 10:57:57;;;;;;;;;;;9.00;59.70;;;;;;5025158;28;19928;-88
2022/12/10 11:00:23;;;;;;;;;;;9.00;59.90;;;;;;5027910;28;20003;-88
2022/12/10 11:02:49;;;;;;;;;;;9.10;60.00;;;;;;5027236;28;19921;-89
2022/12/10 11:05:23;;;;;;;;;;;9.20;60.10;;;;;;5027244;28;19917;-88
2022/12/10 11:07:57;;;;;;;;;;;9.20;60.20;;;;;;5028435;28;19921;-90
2022/12/10 11:10:23;;;;;;;;;;;9.20;60.20;;;;;;5030428;28;19988;-88
2022/12/10 11:12:56;;;;;;;;;;;9.30;60.10;;;;;;5030938;28;19925;-88
2022/12/10 11:15:21;;;;;;;;;;;9.30;60.10;;;;;;5029389;28;19935;-88
2022/12/10 11:17:48;;;;;;;;;;;9.30;60.10;;;;;;5028608;28;20016;-88
2022/12/10 11:20:19;;;;;;;;;;;9.30;60.10;;;;;;5031236;28;19917;-87
2022/12/10 11:22:53;;;;;;;;;;;9.40;59.90;;;;;;5028714;28;19978;-90
2022/12/10 11:25:37;;;;;;;;;;;9.40;59.90;;;;;;5029812;28;20143;-89
2022/12/10 11:28:09;;;;;;;;;;;9.40;59.80;;;;;;5031051;28;19964;-89
2022/12/10 11:30:40;;;;;;;;;;;9.40;59.90;;;;;;5022848;28;19936;-90
2022/12/10 11:33:33;;;;;;;;;;;9.40;59.90;;;;;;5030392;28;20016;-88
2022/12/10 11:36:11;;;;;;;;;;;9.40;59.80;;;;;;5031351;28;19936;-91
2022/12/10 11:38:55;;;;;;;;;;;9.40;59.80;;;;;;5028818;28;20392;-89
2022/12/10 11:41:21;;;;;;;;;;;9.40;59.70;;;;;;5028724;28;20383;-88
2022/12/10 11:43:51;;;;;;;;;;;9.30;59.80;;;;;;5033598;28;19928;-87
2022/12/10 11:46:26;;;;;;;;;;;9.30;59.90;;;;;;5030217;28;20067;-88
2022/12/10 11:49:16;;;;;;;;;;;9.40;60.10;;;;;;5030118;28;20030;-88
2022/12/10 11:51:46;;;;;;;;;;;9.40;60.20;;;;;;5023171;28;20007;-89
2022/12/10 11:54:12;;;;;;;;;;;9.40;60.20;;;;;;5026056;28;19921;-87
2022/12/10 11:56:40;;;;;;;;;;;9.40;60.20;;;;;;5031286;28;19932;-89
2022/12/10 11:59:31;;;;;;;;;;;9.40;60.00;;;;;;5029439;28;19936;-91
2022/12/10 12:01:57;;;;;;;;;;;9.40;59.80;;;;;;5005157;28;19917;-89
2022/12/10 12:04:25;;;;;;;;;;;9.30;59.10;;;;;;5027361;28;20429;-90
2022/12/10 12:06:50;;;;;;;;;;;9.30;59.60;;;;;;5027704;28;19917;-88
2022/12/10 12:09:26;;;;;;;;;;;9.30;59.80;;;;;;5032725;28;19928;-87
2022/12/10 12:11:51;;;;;;;;;;;9.30;60.00;;;;;;5030751;28;19928;-90
2022/12/10 12:14:21;;;;;;;;;;;9.30;59.60;;;;;;5025586;28;20005;-89
2022/12/10 12:17:10;;;;;;;;;;;9.30;59.40;;;;;;5025435;28;19925;-91
2022/12/10 12:19:38;;;;;;;;;;;9.30;59.80;;;;;;4991226;28;19956;-88
2022/12/10 12:22:24;;;;;;;;;;;9.30;59.40;;;;;;5028506;28;19917;-88
2022/12/10 12:24:51;;;;;;;;;;;9.30;59.60;;;;;;5027389;28;19921;-89
2022/12/10 12:27:23;;;;;;;;;;;9.30;59.60;;;;;;5031585;28;20415;-89
2022/12/10 12:30:00;;;;;;;;;;;9.30;59.70;;;;;;5028680;28;20371;-89
2022/12/10 12:32:32;;;;;;;;;;;9.40;59.80;;;;;;5026824;28;20126;-90
2022/12/10 12:35:12;;;;;;;;;;;9.30;59.50;;;;;;5026796;28;19948;-88
2022/12/10 12:37:55;;;;;;;;;;;9.20;59.60;;;;;;5027715;28;19971;-88
2022/12/10 12:40:35;;;;;;;;;;;9.10;59.30;;;;;;5028072;28;19917;-87
2022/12/10 12:43:03;;;;;;;;;;;9.00;59.20;;;;;;5031403;28;20410;-88
2022/12/10 12:45:28;;;;;;;;;;;8.80;59.80;;;;;;5026199;28;20019;-90
2022/12/10 12:48:00;;;;;;;;;;;8.80;60.20;;;;;;5028986;28;19952;-89
2022/12/10 12:50:49;;;;;;;;;;;8.80;60.40;;;;;;5027714;28;20020;-89
2022/12/10 12:53:19;;;;;;;;;;;8.70;60.40;;;;;;5017274;28;19986;-90
2022/12/10 12:56:03;;;;;;;;;;;8.70;60.20;;;;;;5027937;28;19925;-88
2022/12/10 12:58:38;;;;;;;;;;;8.70;59.80;;;;;;5028122;28;20351;-89
2022/12/10 13:01:13;;;;;;;;;;;8.60;59.10;;;;;;5027428;28;19956;-90
2022/12/10 13:03:42;;;;;;;;;;;8.60;59.10;;;;;;5027036;28;19917;-90
2022/12/10 13:06:12;;;;;;;;;;;8.50;59.50;;;;;;5027420;28;20394;-90
2022/12/10 13:08:42;;;;;;;;;;;8.50;59.60;;;;;;5028997;28;19917;-88
2022/12/10 13:11:14;;;;;;;;;;;8.50;59.80;;;;;;5024251;28;19924;-88
2022/12/10 13:13:41;;;;;;;;;;;8.50;59.90;;;;;;5031483;28;19929;-89
2022/12/10 13:16:25;;;;;;;;;;;8.50;59.70;;;;;;5024103;28;20538;-87
2022/12/10 13:19:10;;;;;;;;;;;8.60;60.00;;;;;;5027357;28;19923;-89
2022/12/10 13:21:55;;;;;;;;;;;8.60;60.40;;;;;;5027497;28;20475;-87
2022/12/10 13:24:41;;;;;;;;;;;8.60;60.40;;;;;;5025638;28;19981;-88
2022/12/10 13:27:09;;;;;;;;;;;8.60;59.80;;;;;;5024272;28;19917;-87
2022/12/10 13:29:44;;;;;;;;;;;8.70;60.00;;;;;;5026453;28;19921;-88
2022/12/10 13:32:18;;;;;;;;;;;8.70;60.10;;;;;;5042152;28;19972;-88
2022/12/10 13:34:43;;;;;;;;;;;8.80;60.20;;;;;;5029995;28;19943;-88
2022/12/10 13:37:12;;;;;;;;;;;8.80;60.40;;;;;;5024208;28;19921;-89
2022/12/10 13:39:51;;;;;;;;;;;8.90;60.50;;;;;;5024850;28;20265;-89
2022/12/10 13:45:03;;;;;;;;;;;8.90;60.10;;;;;;5026401;28;19932;-89
2022/12/10 13:47:42;;;;;;;;;;;8.90;60.20;;;;;;5025952;28;19916;-88
2022/12/10 13:50:18;;;;;;;;;;;8.90;60.10;;;;;;5022657;28;20331;-89
2022/12/10 13:52:52;;;;;;;;;;;8.90;60.20;;;;;;5025604;28;20597;-90
2022/12/10 13:55:24;;;;;;;;;;;8.90;60.30;;;;;;5027013;28;20338;-88
2022/12/10 13:57:52;;;;;;;;;;;9.00;60.50;;;;;;5023189;28;20399;-88
2022/12/10 14:00:36;;;;;;;;;;;9.00;60.60;;;;;;5023285;28;19921;-88
2022/12/10 14:03:02;;;;;;;;;;;8.90;60.30;;;;;;5024813;28;19921;-88
2022/12/10 14:05:28;;;;;;;;;;;8.90;60.20;;;;;;5020600;28;19928;-90
2022/12/10 14:07:55;;;;;;;;;;;8.90;59.80;;;;;;5021789;28;19924;-89
2022/12/10 14:10:24;;;;;;;;;;;8.80;59.40;;;;;;5026003;28;19926;-88
2022/12/10 14:12:50;;;;;;;;;;;8.80;59.70;;;;;;5022888;28;19921;-88
2022/12/10 14:15:16;;;;;;;;;;;8.80;59.80;;;;;;5021996;28;20371;-87
2022/12/10 14:17:45;;;;;;;;;;;8.80;60.00;;;;;;5025875;28;19921;-90
2022/12/10 14:20:16;;;;;;;;;;;8.80;60.10;;;;;;5023056;28;19917;-91
2022/12/10 14:22:46;;;;;;;;;;;8.80;60.00;;;;;;5027147;28;19975;-89
2022/12/10 14:25:13;;;;;;;;;;;8.80;59.90;;;;;;5025197;28;20235;-88
2022/12/10 14:27:38;;;;;;;;;;;8.70;59.90;;;;;;5028081;28;19942;-88
2022/12/10 14:30:06;;;;;;;;;;;8.70;59.80;;;;;;5025715;28;20295;-88
2022/12/10 14:32:37;;;;;;;;;;;8.70;59.50;;;;;;5027798;28;20386;-89
2022/12/10 14:35:07;;;;;;;;;;;8.70;59.50;;;;;;5028786;28;19921;-88
2022/12/10 14:37:37;;;;;;;;;;;8.60;59.60;;;;;;5025283;28;20387;-89
2022/12/10 14:40:06;;;;;;;;;;;8.60;59.80;;;;;;5031421;28;20008;-90
2022/12/10 14:42:32;;;;;;;;;;;8.60;59.80;;;;;;5028563;28;19925;-88
2022/12/10 14:45:05;;;;;;;;;;;8.60;59.90;;;;;;5034956;28;20211;-88
2022/12/10 14:47:38;;;;;;;;;;;8.60;59.90;;;;;;5026209;28;19927;-90
2022/12/10 14:50:04;;;;;;;;;;;8.50;59.80;;;;;;5026235;28;19928;-87
2022/12/10 14:52:38;;;;;;;;;;;8.50;59.70;;;;;;5027723;28;19921;-89
2022/12/10 14:55:04;;;;;;;;;;;8.40;59.70;;;;;;5029020;28;19927;-89